createdAt,value
2018-12-23T00:01:32.417Z,99610.95
2018-12-23T00:03:58.564Z,99608.41
2018-12-23T00:06:24.681Z,99613.49
2018-12-23T00:08:50.866Z,99610.98
2018-12-23T00:11:17.036Z,99614.70
2018-12-23T00:13:43.174Z,99618.36
2018-12-23T00:16:09.360Z,99618.50
2018-12-23T00:18:35.488Z,99614.98
2018-12-23T00:21:01.654Z,99616.58
2018-12-23T00:23:27.818Z,99615.54
2018-12-23T00:25:54.018Z,99613.27
2018-12-23T00:28:20.182Z,99606.83
2018-12-23T00:30:46.382Z,99606.92
2018-12-23T00:33:12.521Z,99606.71
2018-12-23T00:35:38.678Z,99602.63
2018-12-23T00:38:04.837Z,99609.59
2018-12-23T00:40:30.973Z,99617.38
2018-12-23T00:42:57.105Z,99620.43
2018-12-23T00:45:23.321Z,99619.78
2018-12-23T00:47:49.459Z,99610.73
2018-12-23T00:50:16.146Z,99620.02
2018-12-23T00:52:42.332Z,99618.38
2018-12-23T00:55:08.591Z,99615.53
2018-12-23T00:57:34.709Z,99602.91
2018-12-23T01:00:00.904Z,99609.46
2018-12-23T01:02:27.047Z,99605.50
2018-12-23T01:04:53.182Z,99607.75
2018-12-23T01:07:19.361Z,99602.46
2018-12-23T01:09:45.502Z,99605.14
2018-12-23T01:12:11.645Z,99598.81
2018-12-23T01:14:37.839Z,99596.62
2018-12-23T01:17:04.005Z,99601.84
2018-12-23T01:19:30.154Z,99611.09
2018-12-23T01:21:56.313Z,99601.84
2018-12-23T01:24:22.463Z,99606.16
2018-12-23T01:26:48.636Z,99616.45
2018-12-23T01:29:14.820Z,99609.84
2018-12-23T01:31:41.103Z,99604.03
2018-12-23T01:34:07.234Z,99606.79
2018-12-23T01:36:33.409Z,99613.48
2018-12-23T01:38:59.585Z,99617.33
2018-12-23T01:41:25.716Z,99601.53
2018-12-23T01:43:51.861Z,99610.14
2018-12-23T01:46:18.023Z,99613.48
2018-12-23T01:48:44.153Z,99604.97
2018-12-23T01:51:10.320Z,99609.11
2018-12-23T01:53:36.453Z,99616.98
2018-12-23T01:56:02.599Z,99617.15
2018-12-23T01:58:28.764Z,99610.44
2018-12-23T02:00:54.906Z,99618.20
2018-12-23T02:03:21.057Z,99604.64
2018-12-23T02:05:47.257Z,99609.50
2018-12-23T02:08:13.405Z,99610.09
2018-12-23T02:10:39.570Z,99615.20
2018-12-23T02:13:05.758Z,99612.91
2018-12-23T02:15:31.892Z,99606.91
2018-12-23T02:17:58.037Z,99602.39
2018-12-23T02:20:24.204Z,99610.04
2018-12-23T02:22:50.357Z,99607.63
2018-12-23T02:25:16.506Z,99608.56
2018-12-23T02:27:42.686Z,99602.95
2018-12-23T02:30:08.967Z,99604.53
2018-12-23T02:32:35.782Z,99602.67
2018-12-23T02:35:01.968Z,99607.05
2018-12-23T02:37:28.094Z,99592.22
2018-12-23T02:39:54.245Z,99600.09
2018-12-23T02:42:20.440Z,99613.31
2018-12-23T02:44:46.738Z,99598.83
2018-12-23T02:47:12.983Z,99603.22
2018-12-23T02:49:39.143Z,99604.47
2018-12-23T02:52:05.287Z,99601.14
2018-12-23T02:54:31.410Z,99600.01
2018-12-23T02:56:57.584Z,99601.32
2018-12-23T02:59:23.759Z,99600.64
2018-12-23T03:01:49.890Z,99598.53
2018-12-23T03:04:16.048Z,99592.75
2018-12-23T03:06:42.190Z,99596.14
2018-12-23T03:09:08.319Z,99596.15
2018-12-23T03:11:34.472Z,99588.83
2018-12-23T03:14:00.597Z,99600.88
2018-12-23T03:16:26.873Z,99581.40
2018-12-23T03:18:53.067Z,99588.99
2018-12-23T03:21:19.229Z,99580.91
2018-12-23T03:23:45.401Z,99587.85
2018-12-23T03:26:11.582Z,99585.24
2018-12-23T03:28:37.759Z,99589.73
2018-12-23T03:31:03.911Z,99591.27
2018-12-23T03:33:30.081Z,99595.00
2018-12-23T03:35:56.217Z,99597.67
2018-12-23T03:38:22.342Z,99613.23
2018-12-23T03:40:48.509Z,99612.61
2018-12-23T03:43:14.633Z,99601.32
2018-12-23T03:45:40.769Z,99603.88
2018-12-23T03:48:06.921Z,99605.91
2018-12-23T03:50:33.045Z,99614.18
2018-12-23T03:52:59.185Z,99609.82
2018-12-23T03:55:25.353Z,99619.58
2018-12-23T03:57:51.493Z,99626.88
2018-12-23T04:00:17.628Z,99628.66
2018-12-23T04:02:43.789Z,99631.91
2018-12-23T04:05:09.929Z,99637.94
2018-12-23T04:07:36.102Z,99628.44
2018-12-23T04:10:02.413Z,99623.91
2018-12-23T04:12:28.552Z,99614.22
2018-12-23T04:14:54.709Z,99598.97
2018-12-23T04:17:22.098Z,99599.41
2018-12-23T04:19:48.226Z,99603.47
2018-12-23T04:22:14.391Z,99616.98
2018-12-23T04:24:41.713Z,99629.86
2018-12-23T04:27:07.860Z,99634.27
2018-12-23T04:29:34.038Z,99634.38
2018-12-23T04:32:00.198Z,99659.02
2018-12-23T04:34:26.364Z,99664.67
2018-12-23T04:36:52.494Z,99662.97
2018-12-23T04:39:18.663Z,99651.56
2018-12-23T04:41:44.810Z,99659.44
2018-12-23T04:44:10.938Z,99641.47
2018-12-23T04:46:37.118Z,99658.41
2018-12-23T04:49:03.315Z,99668.52
2018-12-23T04:51:29.458Z,99661.67
2018-12-23T04:53:55.637Z,99662.98
2018-12-23T04:56:21.761Z,99671.22
2018-12-23T04:58:47.913Z,99663.95
2018-12-23T05:01:14.089Z,99670.89
2018-12-23T05:03:42.797Z,99667.70
2018-12-23T05:06:08.440Z,99676.13
2018-12-23T05:08:34.612Z,99684.45
2018-12-23T05:11:00.741Z,99676.73
2018-12-23T05:13:26.870Z,99682.16
2018-12-23T05:15:53.046Z,99688.20
2018-12-23T05:18:19.186Z,99681.97
2018-12-23T05:20:45.313Z,99691.11
2018-12-23T05:23:11.550Z,99691.95
2018-12-23T05:25:37.684Z,99688.09
2018-12-23T05:28:03.801Z,99695.17
2018-12-23T05:30:30.069Z,99692.77
2018-12-23T05:32:56.244Z,99689.98
2018-12-23T05:35:22.395Z,99698.56
2018-12-23T05:37:48.570Z,99713.32
2018-12-23T05:40:14.725Z,99710.22
2018-12-23T05:42:40.863Z,99712.38
2018-12-23T05:45:07.036Z,99715.58
2018-12-23T05:47:33.220Z,99718.16
2018-12-23T05:49:59.489Z,99704.66
2018-12-23T05:52:25.754Z,99709.42
2018-12-23T05:54:51.900Z,99723.80
2018-12-23T05:57:18.033Z,99744.67
2018-12-23T05:59:44.199Z,99741.57
2018-12-23T06:02:10.368Z,99747.67
2018-12-23T06:04:36.508Z,99751.70
2018-12-23T06:07:02.675Z,99750.14
2018-12-23T06:09:28.797Z,99743.14
2018-12-23T06:11:54.969Z,99733.63
2018-12-23T06:14:21.204Z,99741.18
2018-12-23T06:16:47.339Z,99732.88
2018-12-23T06:19:13.473Z,99739.91
2018-12-23T06:21:39.649Z,99738.23
2018-12-23T06:24:05.806Z,99741.85
2018-12-23T06:26:31.949Z,99743.06
2018-12-23T06:28:58.125Z,99754.37
2018-12-23T06:31:24.265Z,99753.58
2018-12-23T06:33:50.409Z,99737.91
2018-12-23T06:36:17.287Z,99732.44
2018-12-23T06:38:43.436Z,99728.61
2018-12-23T06:41:09.585Z,99723.99
2018-12-23T06:43:35.756Z,99720.20
2018-12-23T06:46:01.917Z,99728.84
2018-12-23T06:48:28.046Z,99712.85
2018-12-23T06:50:54.214Z,99737.11
2018-12-23T06:53:20.346Z,99729.45
2018-12-23T06:55:46.476Z,99726.10
2018-12-23T06:58:12.634Z,99719.13
2018-12-23T07:00:38.777Z,99720.77
2018-12-23T07:03:04.911Z,99737.84
2018-12-23T07:05:31.091Z,99738.81
2018-12-23T07:07:57.225Z,99738.58
2018-12-23T07:10:23.357Z,99758.39
2018-12-23T07:12:49.537Z,99756.23
2018-12-23T07:15:15.665Z,99741.13
2018-12-23T07:17:41.794Z,99758.31
2018-12-23T07:20:07.990Z,99748.87
2018-12-23T07:22:34.156Z,99751.16
2018-12-23T07:25:00.305Z,99750.22
2018-12-23T07:27:26.478Z,99758.33
2018-12-23T07:29:52.602Z,99758.92
2018-12-23T07:32:18.745Z,99763.66
2018-12-23T07:34:44.901Z,99774.19
2018-12-23T07:37:11.042Z,99772.32
2018-12-23T07:39:37.196Z,99784.95
2018-12-23T07:42:03.376Z,99783.88
2018-12-23T07:44:29.524Z,99804.92
2018-12-23T07:46:55.653Z,99803.92
2018-12-23T07:49:21.837Z,99812.92
2018-12-23T07:51:47.981Z,99827.99
2018-12-23T07:54:14.117Z,99839.27
2018-12-23T07:56:40.305Z,99829.89
2018-12-23T07:59:06.448Z,99840.22
2018-12-23T08:01:32.605Z,99851.34
2018-12-23T08:03:58.867Z,99843.92
2018-12-23T08:06:25.029Z,99847.59
2018-12-23T08:08:51.174Z,99842.92
2018-12-23T08:11:17.350Z,99851.48
2018-12-23T08:13:43.489Z,99844.39
2018-12-23T08:16:09.633Z,99842.59
2018-12-23T08:18:35.817Z,99844.14
2018-12-23T08:21:01.946Z,99851.75
2018-12-23T08:23:28.077Z,99842.27
2018-12-23T08:25:54.259Z,99854.23
2018-12-23T08:28:26.314Z,99852.62
2018-12-23T08:30:52.457Z,99863.27
2018-12-23T08:33:18.625Z,99855.34
2018-12-23T08:35:44.753Z,99855.54
2018-12-23T08:38:10.893Z,99852.81
2018-12-23T08:40:37.064Z,99854.40
2018-12-23T08:43:03.263Z,99847.05
2018-12-23T08:45:29.398Z,99847.92
2018-12-23T08:47:55.566Z,99844.38
2018-12-23T08:50:21.695Z,99843.41
2018-12-23T08:52:47.829Z,99823.83
2018-12-23T08:55:14.004Z,99840.41
2018-12-23T08:57:40.214Z,99845.92
2018-12-23T09:00:06.883Z,99848.03
2018-12-23T09:02:33.176Z,99849.34
2018-12-23T09:04:59.349Z,99860.84
2018-12-23T09:07:25.509Z,99870.75
2018-12-23T09:09:51.669Z,99863.52
2018-12-23T09:12:17.822Z,99865.11
2018-12-23T09:14:43.973Z,99872.88
2018-12-23T09:17:10.133Z,99875.87
2018-12-23T09:19:36.270Z,99872.02
2018-12-23T09:22:02.435Z,99874.05
2018-12-23T09:24:28.601Z,99873.27
2018-12-23T09:26:54.750Z,99869.30
2018-12-23T09:29:20.877Z,99863.76
2018-12-23T09:31:47.029Z,99866.98
2018-12-23T09:34:13.200Z,99869.91
2018-12-23T09:36:39.346Z,99868.73
2018-12-23T09:39:05.979Z,99873.47
2018-12-23T09:41:32.129Z,99872.17
2018-12-23T09:43:58.262Z,99863.41
2018-12-23T09:46:24.723Z,99868.80
2018-12-23T09:48:50.860Z,99881.25
2018-12-23T09:51:16.996Z,99867.16
2018-12-23T09:53:43.181Z,99857.23
2018-12-23T09:56:09.345Z,99861.38
2018-12-23T09:58:35.510Z,99864.46
2018-12-23T10:01:01.668Z,99861.17
2018-12-23T10:03:27.801Z,99854.56
2018-12-23T10:05:53.949Z,99870.23
2018-12-23T10:08:20.116Z,99857.59
2018-12-23T10:10:46.243Z,99861.41
2018-12-23T10:13:12.389Z,99846.31
2018-12-23T10:15:38.597Z,99866.81
2018-12-23T10:18:04.761Z,99875.02
2018-12-23T10:20:31.166Z,99869.16
2018-12-23T10:22:57.349Z,99868.57
2018-12-23T10:25:23.504Z,99869.64
2018-12-23T10:27:49.638Z,99873.84
2018-12-23T10:30:15.846Z,99879.73
2018-12-23T10:32:42.000Z,99866.17
2018-12-23T10:35:08.141Z,99861.91
2018-12-23T10:37:34.310Z,99847.17
2018-12-23T10:40:00.492Z,99870.59
2018-12-23T10:42:26.758Z,99840.30
2018-12-23T10:44:52.947Z,99855.87
2018-12-23T10:47:19.073Z,99863.22
2018-12-23T10:49:45.701Z,99862.93
2018-12-23T10:52:12.018Z,99846.03
2018-12-23T10:54:38.167Z,99862.06
2018-12-23T10:57:04.305Z,99865.66
2018-12-23T10:59:31.195Z,99865.23
2018-12-23T11:01:57.494Z,99871.80
2018-12-23T11:04:23.963Z,99888.28
2018-12-23T11:06:50.494Z,99877.69
2018-12-23T11:09:16.832Z,99881.34
2018-12-23T11:11:42.989Z,99898.23
2018-12-23T11:14:09.136Z,99888.77
2018-12-23T11:16:35.253Z,99866.34
2018-12-23T11:19:01.389Z,99872.54
2018-12-23T11:21:27.557Z,99870.43
2018-12-23T11:23:53.678Z,99863.46
2018-12-23T11:26:19.805Z,99884.59
2018-12-23T11:28:45.977Z,99872.98
2018-12-23T11:31:12.136Z,99883.72
2018-12-23T11:33:38.264Z,99890.57
2018-12-23T11:36:04.450Z,99860.37
2018-12-23T11:38:35.537Z,99884.63
2018-12-23T11:40:59.911Z,99877.78
2018-12-23T11:43:26.097Z,99880.23
2018-12-23T11:45:52.209Z,99885.16
2018-12-23T11:48:18.427Z,99897.86
2018-12-23T11:50:44.682Z,99898.11
2018-12-23T11:53:10.839Z,99881.29
2018-12-23T11:55:36.951Z,99893.22
2018-12-23T11:58:03.150Z,99911.27
2018-12-23T12:00:29.295Z,99912.65
2018-12-23T12:02:55.445Z,99922.83
2018-12-23T12:05:21.612Z,99916.51
2018-12-23T12:07:47.745Z,99917.83
2018-12-23T12:10:13.890Z,99920.30
2018-12-23T12:12:40.153Z,99920.31
2018-12-23T12:15:06.304Z,99908.45
2018-12-23T12:17:32.551Z,99920.25
2018-12-23T12:19:58.746Z,99927.92
2018-12-23T12:22:24.888Z,99927.38
2018-12-23T12:24:51.229Z,99933.22
2018-12-23T12:27:17.594Z,99942.71
2018-12-23T12:29:43.777Z,99934.97
2018-12-23T12:32:10.023Z,99923.62
2018-12-23T12:34:36.249Z,99927.13
2018-12-23T12:37:02.467Z,99929.77
2018-12-23T12:39:28.705Z,99930.57
2018-12-23T12:41:54.899Z,99940.13
2018-12-23T12:44:21.167Z,99947.86
2018-12-23T12:46:47.385Z,99949.81
2018-12-23T12:49:13.622Z,99956.66
2018-12-23T12:51:39.798Z,99959.33
2018-12-23T12:54:05.946Z,99962.66
2018-12-23T12:56:32.179Z,99972.70
2018-12-23T12:58:58.313Z,99963.17
2018-12-23T13:01:24.469Z,99972.48
2018-12-23T13:03:50.642Z,99961.52
2018-12-23T13:06:16.797Z,99961.20
2018-12-23T13:08:42.941Z,99965.08
2018-12-23T13:11:09.178Z,99968.72
2018-12-23T13:13:35.340Z,99954.96
2018-12-23T13:16:01.505Z,99964.64
2018-12-23T13:18:27.691Z,99951.70
2018-12-23T13:20:53.849Z,99963.62
2018-12-23T13:23:19.982Z,99968.89
2018-12-23T13:25:46.150Z,99972.89
2018-12-23T13:28:12.293Z,99969.87
2018-12-23T13:30:38.418Z,99952.78
2018-12-23T13:33:04.624Z,99955.09
2018-12-23T13:35:30.765Z,99965.59
2018-12-23T13:37:57.061Z,99966.22
2018-12-23T13:40:27.317Z,99975.20
2018-12-23T13:43:05.241Z,99975.05
2018-12-23T13:45:58.137Z,99981.34
2018-12-23T13:48:32.436Z,99981.55
2018-12-23T13:51:26.677Z,99982.38
2018-12-23T14:01:14.607Z,99986.30
2018-12-23T14:07:21.205Z,99989.84
2018-12-23T14:12:48.342Z,100004.45
2018-12-23T14:15:14.633Z,100000.44
2018-12-23T14:17:41.022Z,100019.95
2018-12-23T14:20:07.366Z,100008.98
2018-12-23T14:22:33.642Z,100012.53
2018-12-23T14:24:59.925Z,100014.77
2018-12-23T14:27:26.236Z,100015.75
2018-12-23T14:29:52.518Z,100017.61
2018-12-23T14:32:18.800Z,100012.95
2018-12-23T14:34:45.122Z,100010.91
2018-12-23T14:37:11.566Z,100006.87
2018-12-23T14:39:37.852Z,100012.14
2018-12-23T14:42:04.271Z,100018.68
2018-12-23T14:44:30.554Z,100023.21
2018-12-23T14:46:56.853Z,100022.76
2018-12-23T14:49:23.171Z,100030.52
2018-12-23T14:51:49.585Z,100034.23
2018-12-23T14:54:15.884Z,100026.20
2018-12-23T14:56:42.200Z,100019.44
2018-12-23T14:59:08.485Z,100025.67
2018-12-23T15:01:34.773Z,100021.02
2018-12-23T15:04:01.102Z,100014.75
2018-12-23T15:06:27.386Z,100017.98
2018-12-23T15:08:53.667Z,100016.80
2018-12-23T15:11:20.084Z,100014.27
2018-12-23T15:13:46.377Z,100020.44
2018-12-23T15:16:12.658Z,100017.61
2018-12-23T15:18:38.980Z,100015.87
2018-12-23T15:21:05.263Z,100016.46
2018-12-23T15:23:31.542Z,100019.72
2018-12-23T15:25:57.851Z,100019.95
2018-12-23T15:28:24.236Z,100027.50
2018-12-23T15:30:50.514Z,100023.41
2018-12-23T15:33:16.830Z,100039.47
2018-12-23T15:35:43.211Z,100049.16
2018-12-23T15:38:09.491Z,100030.37
2018-12-23T15:40:35.844Z,100023.41
2018-12-23T15:43:02.129Z,100027.67
2018-12-23T15:45:28.520Z,100025.75
2018-12-23T15:47:54.956Z,100036.37
2018-12-23T15:50:21.292Z,100023.45
2018-12-23T15:52:47.567Z,100032.03
2018-12-23T15:55:14.419Z,100037.56
2018-12-23T15:57:40.797Z,100034.62
2018-12-23T16:00:48.511Z,100036.70
2018-12-23T16:03:14.787Z,100029.27
2018-12-23T16:05:41.067Z,100034.03
2018-12-23T16:08:07.376Z,100039.52
2018-12-23T16:10:33.657Z,100031.09
2018-12-23T16:12:59.934Z,100036.70
2018-12-23T16:15:26.244Z,100031.37
2018-12-23T16:17:52.552Z,100034.72
2018-12-23T16:20:18.917Z,100037.41
2018-12-23T16:22:45.260Z,100040.70
2018-12-23T16:25:11.539Z,100034.91
2018-12-23T16:27:37.822Z,100041.17
2018-12-23T16:30:45.564Z,100043.73
2018-12-23T16:33:11.961Z,100041.03
2018-12-23T16:35:38.336Z,100037.77
2018-12-23T16:38:04.662Z,100036.77
2018-12-23T16:40:30.947Z,100038.45
2018-12-23T16:42:57.382Z,100042.55
2018-12-23T16:45:23.810Z,100039.86
2018-12-23T16:47:50.093Z,100033.23
2018-12-23T16:50:16.399Z,100037.58
2018-12-23T16:52:42.717Z,100034.98
2018-12-23T16:55:09.009Z,100034.36
2018-12-23T16:57:35.284Z,100037.70
2018-12-23T17:00:01.600Z,100047.61
2018-12-23T17:02:28.007Z,100046.89
2018-12-23T17:04:54.389Z,100043.59
2018-12-23T17:07:20.728Z,100039.75
2018-12-23T17:09:47.011Z,100033.47
2018-12-23T17:12:13.296Z,100020.48
2018-12-23T17:14:39.621Z,100034.20
2018-12-23T17:17:05.926Z,100034.44
2018-12-23T17:19:32.182Z,100033.10
2018-12-23T17:21:58.515Z,100049.67
2018-12-23T17:24:24.789Z,100051.30
2018-12-23T17:26:51.079Z,100047.69
2018-12-23T17:29:17.539Z,100052.23
2018-12-23T17:31:43.927Z,100062.42
2018-12-23T17:34:10.212Z,100068.05
2018-12-23T17:36:36.553Z,100067.72
2018-12-23T17:39:44.367Z,100066.80
2018-12-23T17:42:10.732Z,100064.20
2018-12-23T17:44:37.070Z,100077.11
2018-12-23T17:47:03.508Z,100068.03
2018-12-23T17:49:30.020Z,100078.56
2018-12-23T17:55:10.077Z,100070.98
2018-12-23T17:57:36.357Z,100077.98
2018-12-23T18:02:57.197Z,100080.17
2018-12-23T18:05:23.481Z,100067.02
2018-12-23T18:07:49.764Z,100072.47
2018-12-23T18:10:16.186Z,100075.38
2018-12-23T18:12:42.561Z,100074.64
2018-12-23T18:15:08.848Z,100081.30
2018-12-23T18:17:35.267Z,100074.31
2018-12-23T18:20:01.555Z,100078.47
2018-12-23T18:22:27.835Z,100074.86
2018-12-23T18:24:54.180Z,100078.22
2018-12-23T18:27:20.543Z,100075.29
2018-12-23T18:29:46.824Z,100066.99
2018-12-23T18:32:13.150Z,100076.12
2018-12-23T18:34:39.431Z,100069.88
2018-12-23T18:37:05.726Z,100065.33
2018-12-23T18:39:32.035Z,100059.81
2018-12-23T18:41:58.315Z,100065.48
2018-12-23T18:44:24.602Z,100070.23
2018-12-23T18:46:51.020Z,100058.92
2018-12-23T18:49:17.305Z,100065.61
2018-12-23T18:51:43.638Z,100064.31
2018-12-23T18:54:10.057Z,100065.65
2018-12-23T18:56:36.443Z,100073.89
2018-12-23T18:59:02.720Z,100069.06
2018-12-23T19:01:29.052Z,100057.14
2018-12-23T19:03:55.336Z,100063.67
2018-12-23T19:06:21.823Z,100066.69
2018-12-23T19:09:29.555Z,100054.22
2018-12-23T19:12:35.328Z,100074.98
2018-12-23T19:15:43.048Z,100078.81
2018-12-23T19:18:52.786Z,100077.28
2018-12-23T19:22:00.551Z,100079.62
2018-12-23T19:25:06.331Z,100078.78
2018-12-23T19:28:12.155Z,100077.81
2018-12-23T19:31:18.046Z,100079.77
2018-12-23T19:34:23.853Z,100087.04
2018-12-23T19:37:29.631Z,100087.12
2018-12-23T19:40:35.442Z,100094.63
2018-12-23T19:46:54.710Z,100089.80
2018-12-23T19:50:00.598Z,100097.31
2018-12-23T19:53:06.525Z,100095.52
2018-12-23T19:56:12.299Z,100085.56
2018-12-23T19:59:18.238Z,100096.82
2018-12-23T20:02:24.269Z,100094.07
2018-12-23T20:05:30.217Z,100086.22
2018-12-23T20:20:52.297Z,100078.48
2018-12-23T20:23:58.086Z,100077.33
2018-12-23T20:27:03.896Z,100070.09
2018-12-23T20:33:23.440Z,100061.20
2018-12-23T20:36:29.223Z,100061.44
2018-12-23T20:39:36.966Z,100057.70
2018-12-23T20:45:43.686Z,100050.43
2018-12-23T21:00:51.794Z,100070.55
2018-12-23T21:06:58.750Z,100068.84
2018-12-23T21:10:04.539Z,100063.66
2018-12-23T21:13:10.448Z,100063.75
2018-12-23T21:19:30.169Z,100048.51
2018-12-23T21:22:36.066Z,100052.27
2018-12-23T21:25:41.866Z,100060.59
2018-12-23T21:31:48.403Z,100054.31
2018-12-23T21:37:54.566Z,100056.50
2018-12-23T21:44:01.306Z,100039.86
2018-12-23T21:50:07.965Z,100031.03
2018-12-23T21:53:13.837Z,100027.84
2018-12-23T21:56:19.759Z,100012.16
2018-12-23T21:59:25.649Z,100009.29
2018-12-23T22:02:33.379Z,100017.20
2018-12-23T22:08:46.175Z,100009.02
2018-12-23T22:14:26.496Z,100028.54
2018-12-23T22:16:52.782Z,100033.53
2018-12-23T22:19:19.168Z,100028.15
2018-12-23T22:21:45.487Z,100031.95
2018-12-23T22:24:11.769Z,100032.48
2018-12-23T22:26:38.050Z,100031.85
2018-12-23T22:29:04.359Z,100030.48
2018-12-23T22:31:30.749Z,100025.95
2018-12-23T22:33:57.028Z,100021.34
2018-12-23T22:36:23.344Z,100014.91
2018-12-23T22:38:49.729Z,100007.28
2018-12-23T22:41:16.127Z,100004.43
2018-12-23T22:43:42.435Z,100000.92
2018-12-23T22:46:08.705Z,100004.69
2018-12-23T22:48:34.986Z,99998.45
2018-12-23T22:51:01.402Z,100002.53
2018-12-23T22:53:27.724Z,99994.75
2018-12-23T22:55:54.009Z,99994.10
2018-12-23T22:58:20.326Z,99984.06
2018-12-23T23:04:00.524Z,99987.02
2018-12-23T23:06:26.807Z,99984.05
2018-12-23T23:08:53.183Z,99978.67
2018-12-23T23:11:19.491Z,99985.36
2018-12-23T23:13:45.774Z,99985.88
2018-12-23T23:16:12.069Z,99987.41
2018-12-23T23:18:38.290Z,99985.62
2018-12-23T23:21:04.673Z,99987.28
2018-12-23T23:23:30.961Z,99988.31
2018-12-23T23:25:57.274Z,99987.97
2018-12-23T23:28:23.651Z,99993.94
2018-12-23T23:30:49.946Z,99993.74
2018-12-23T23:33:16.246Z,99994.58
2018-12-23T23:35:42.530Z,99988.08
2018-12-23T23:38:08.811Z,99990.05
2018-12-23T23:40:35.132Z,99995.59
2018-12-23T23:43:01.409Z,99992.70
2018-12-23T23:45:27.692Z,99993.74
2018-12-23T23:47:54.008Z,99993.52
2018-12-23T23:50:20.281Z,99985.92
2018-12-23T23:52:46.664Z,99993.26
2018-12-23T23:55:13.020Z,99996.97
2018-12-23T23:57:39.404Z,99999.73
